ソウル/仁川 の空港の天気 - METARとTAF

仁川国際空港 ( RKSI / ICN ) - 韓国 仁川広域市 (ソウル特別市近郊)
飛行場実況気象(Metar)
観測時間01/23 11:00 KST (01/23 02:00 UTC)
風向・風速東北東 6m/s
視程10km以上
天気現象
全天の4割程度の雲 雲底高度 1220m
全天の8割程度の雲 雲底高度 6100m
気温7℃
湿度66%
気圧1020hPa
METARRKSI 230200Z 06012KT 9999 SCT040 BKN200 07/01 Q1020 NOSIG
過去の天気等 Google飛行場航空写真 Wunderground天気予報

過去48時間のMETAR

飛行場予報(TAF)
発表時間: 1/23 08:00 KST (1/22 23:00 UTC)
予報対象時間: 23日9時 KST ~ 24日15時 KST
風向・風速北東 5m/s
視程6000m
全天の8割程度の雲 雲底高度 910m
23日12時 KST ~ 23日13時 KST に徐々に
全天の4割程度の雲 雲底高度 910m
全天の8割程度の雲 雲底高度 4880m
24日11時 KST ~ 24日12時 KST に徐々に
風向・風速北西 3m/s
TAF RKSI 222300Z 2300/2406 05010KT 6000 BKN030 TX09/2306Z TN01/2322Z TX09/2405Z
BECMG 2303/2304 SCT030 BKN160
BECMG 2402/2403 32006KT